This is the latest recevied weather packets stored in our database for station/object CE1JFB-10. If no packets are shown the sender has not sent any weather packets the latest 10 day(s).
| Time | Temp. | Humidity | Pressure | Rain* | Wind** | Luminosity | Snow |
|---|---|---|---|---|---|---|---|
| 1787526247 | 20.56° C | 67% | 1016.2 hPa | - | - | - | - |
| 1787522646 | 20.56° C | 68% | 1014.5 hPa | - | - | - | - |
| 1787519046 | 20.56° C | 68% | 1012.9 hPa | - | - | - | - |
| 1787515446 | 20.56° C | 68% | 1011 hPa | - | - | - | - |
| 1787511846 | 20.56° C | 68% | 1011.7 hPa | - | - | - | - |
| 1787508246 | 21.67° C | 64% | 1011.8 hPa | - | - | - | - |
| 1787504646 | 21.11° C | 65% | 1013.3 hPa | - | - | - | - |
| 1787501046 | 20.56° C | 67% | 1015.2 hPa | - | - | - | - |
| 1787497446 | 21.11° C | 65% | 1015.1 hPa | - | - | - | - |
| 1787493846 | 20.56° C | 66% | 1013.7 hPa | - | - | - | - |
| 1787490246 | 20° C | 69% | 1013.5 hPa | - | - | - | - |
| 1787486645 | 20° C | 69% | 1014.3 hPa | - | - | - | - |
| 1787483045 | 20° C | 68% | 1013.6 hPa | - | - | - | - |
| 1787479445 | 20° C | 70% | 1012.6 hPa | - | - | - | - |
| 1787475845 | 20° C | 68% | 1012.5 hPa | - | - | - | - |
| 1787472245 | 20.56° C | 66% | 1012.1 hPa | - | - | - | - |
| 1787468645 | 20.56° C | 65% | 1012.6 hPa | - | - | - | - |
| 1787465045 | 20.56° C | 65% | 1013.6 hPa | - | - | - | - |
| 1787461445 | 21.11° C | 64% | 1014.7 hPa | - | - | - | - |
| 1787457844 | 20.56° C | 65% | 1015.3 hPa | - | - | - | - |
| 1787454244 | 20.56° C | 66% | 1015.7 hPa | - | - | - | - |
| 1787450644 | 20.56° C | 65% | 1015.8 hPa | - | - | - | - |
| 1787447044 | 21.11° C | 65% | 1015.5 hPa | - | - | - | - |
| 1787443444 | 21.11° C | 64% | 1015.3 hPa | - | - | - | - |
| 1787439844 | 21.11° C | 63% | 1014.3 hPa | - | - | - | - |
* Rain since midnight (hover to see other rain measurements)
** Current wind speed in m/s (hover to see current wind gust speed)